createdAt,value
2018-06-20T08:06:27.680Z,995.14
2018-06-20T08:27:26.172Z,995.12
2018-06-20T08:46:07.444Z,995.48
2018-06-20T08:47:01.359Z,995.47
2018-06-20T09:17:12.321Z,994.71
2018-06-20T09:18:18.735Z,994.66
2018-06-20T09:19:03.810Z,994.73
2018-06-20T09:20:08.906Z,995.39
2018-06-20T09:21:18.977Z,994.72
2018-06-20T09:24:00.564Z,994.66
2018-06-20T09:24:29.231Z,994.66
2018-06-20T09:25:31.573Z,994.71
2018-06-20T09:27:01.677Z,994.71
2018-06-20T09:30:52.221Z,994.65
2018-06-20T09:31:37.976Z,994.90
2018-06-20T09:32:54.990Z,995.28
2018-06-20T09:33:58.526Z,995.32
2018-06-20T09:34:56.036Z,995.33
2018-06-20T09:36:00.541Z,995.14
2018-06-20T09:36:47.748Z,995.38
2018-06-20T09:38:03.012Z,995.03
2018-06-20T09:48:48.165Z,994.72
2018-06-20T09:54:30.986Z,994.53
2018-06-20T10:12:25.387Z,995.30
2018-06-20T10:12:40.427Z,995.14
2018-06-20T10:15:34.852Z,995.23
2018-06-20T10:16:43.055Z,995.03
2018-06-20T10:17:10.146Z,994.78
2018-06-20T10:18:35.647Z,994.34
2018-06-20T10:19:21.728Z,994.32
2018-06-20T10:25:29.697Z,995.12
2018-06-20T10:27:37.502Z,994.24
2018-06-20T10:30:12.826Z,994.17
2018-06-20T10:32:00.313Z,995.13
2018-06-20T10:32:58.556Z,995.07
2018-06-20T10:35:51.720Z,995.16
2018-06-20T10:42:56.300Z,995.34
2018-06-20T10:50:27.217Z,995.22
2018-06-20T10:51:21.274Z,995.13
2018-06-20T10:52:26.805Z,994.71
2018-06-20T10:54:18.977Z,994.60
2018-06-20T10:55:39.283Z,993.98
2018-06-20T10:56:47.382Z,993.96
2018-06-20T10:57:26.374Z,994.00
2018-06-20T11:06:27.170Z,994.00
2018-06-20T11:07:47.564Z,994.04
2018-06-20T11:08:34.010Z,994.12
2018-06-20T11:09:22.382Z,994.02
2018-06-20T11:13:50.250Z,993.53
2018-06-20T11:14:30.840Z,993.57
2018-06-20T11:16:03.292Z,993.55
2018-06-20T11:16:31.954Z,993.52
2018-06-20T11:17:38.775Z,993.63
2018-06-20T11:18:58.779Z,993.58
2018-06-20T11:19:26.340Z,993.58
2018-06-20T11:20:28.806Z,993.55
2018-06-20T11:21:39.246Z,993.56
2018-06-20T11:24:24.204Z,993.49
2018-06-20T11:26:35.937Z,993.46
2018-06-20T11:28:09.078Z,993.45
2018-06-20T11:28:57.572Z,993.41
2018-06-20T11:30:01.946Z,993.42
2018-06-20T11:30:39.572Z,993.42
2018-06-20T11:31:54.790Z,993.33
2018-06-20T11:32:42.512Z,993.34
2018-06-20T11:33:33.496Z,993.29
2018-06-20T11:34:36.551Z,993.26
2018-06-20T11:35:34.916Z,993.31
2018-06-20T11:36:51.028Z,993.30
2018-06-20T11:37:58.416Z,993.27
2018-06-20T11:39:00.515Z,993.29
2018-06-20T11:39:38.579Z,993.23
2018-06-20T11:40:57.047Z,993.24
2018-06-20T11:41:34.174Z,993.22
2018-06-20T11:42:40.121Z,993.20
2018-06-20T11:43:36.120Z,993.18
2018-06-20T11:44:35.219Z,993.17
2018-06-20T11:45:38.573Z,993.14
2018-06-20T11:46:51.530Z,993.13
2018-06-20T11:47:48.077Z,993.14
2018-06-20T11:48:37.399Z,993.17
2018-06-20T11:49:56.718Z,993.13
2018-06-20T11:50:43.030Z,993.11
2018-06-20T11:51:51.570Z,993.06
2018-06-20T11:52:39.027Z,993.09
2018-06-20T11:53:39.172Z,992.99
2018-06-20T11:54:42.562Z,993.07
2018-06-20T11:55:58.865Z,993.04
2018-06-20T11:56:38.550Z,993.02
2018-06-20T11:58:00.067Z,992.93
2018-06-20T11:58:42.036Z,993.02
2018-06-20T11:59:39.829Z,993.00
2018-06-20T12:00:40.556Z,992.96
2018-06-20T12:01:41.531Z,992.95
2018-06-20T12:02:40.121Z,992.92
2018-06-20T12:03:42.074Z,992.91
2018-06-20T12:04:40.115Z,992.88
2018-06-20T12:05:38.751Z,992.85
2018-06-20T12:06:41.618Z,992.90
2018-06-20T12:07:44.579Z,992.85
2018-06-20T12:08:43.272Z,992.88
2018-06-20T12:09:46.072Z,992.85
2018-06-20T12:10:52.018Z,992.78
2018-06-20T12:11:45.624Z,992.81
2018-06-20T12:12:55.627Z,992.83
2018-06-20T12:13:42.348Z,992.83
2018-06-20T12:16:24.334Z,992.82
2018-06-20T12:17:38.111Z,992.83
2018-06-20T12:18:15.223Z,992.79
2018-06-20T12:19:15.824Z,992.80
2018-06-20T12:20:13.318Z,992.76
2018-06-20T12:21:15.265Z,992.78
2018-06-20T12:22:15.361Z,992.74
2018-06-20T12:23:17.302Z,992.72
2018-06-20T12:24:35.165Z,992.70
2018-06-20T12:25:32.333Z,992.72
2018-06-20T12:26:42.995Z,992.67
2018-06-20T12:27:15.812Z,992.68
2018-06-20T12:28:16.810Z,992.67
2018-06-20T12:29:30.806Z,992.63
2018-06-20T12:30:23.761Z,992.64
2018-06-20T12:31:18.285Z,992.66
2018-06-20T12:32:40.803Z,992.69
2018-06-20T12:33:19.745Z,992.62
2018-06-20T12:34:18.292Z,992.60
2018-06-20T12:35:19.261Z,992.57
2018-06-20T12:36:16.627Z,992.52
2018-06-20T12:37:24.812Z,992.54
2018-06-20T12:38:20.796Z,992.51
2018-06-20T12:39:44.240Z,992.47
2018-06-20T12:40:20.286Z,992.48
2018-06-20T12:41:33.293Z,992.49
2018-06-20T12:42:17.898Z,992.45
2018-06-20T12:43:19.132Z,992.50
2018-06-20T12:44:24.376Z,992.47
2018-06-20T12:45:25.236Z,992.42
2018-06-20T12:46:30.831Z,992.43
2018-06-20T12:47:35.738Z,992.39
2018-06-20T12:48:22.287Z,992.38
2018-06-20T12:49:23.340Z,992.41
2018-06-20T12:50:23.334Z,992.36
2018-06-20T12:56:08.827Z,992.32
2018-06-20T12:57:42.639Z,992.30
2018-06-20T12:58:09.182Z,992.33
2018-06-20T12:59:19.624Z,992.31
2018-06-20T13:00:42.268Z,992.32
2018-06-20T13:01:30.398Z,992.36
2018-06-20T13:02:28.767Z,992.31
2018-06-20T13:03:07.692Z,992.25
2018-06-20T13:09:15.570Z,992.19
2018-06-20T13:09:53.114Z,992.23
2018-06-20T13:12:35.175Z,992.18
2018-06-20T13:13:42.574Z,992.14
2018-06-20T13:16:30.860Z,992.14
2018-06-20T13:17:31.731Z,992.19
2018-06-20T13:18:08.176Z,992.14
2018-06-20T13:19:43.018Z,992.09
2018-06-20T13:20:10.713Z,992.12
2018-06-20T13:21:07.725Z,992.08
2018-06-20T13:22:15.903Z,992.06
2018-06-20T13:23:26.931Z,992.07
2018-06-20T13:24:19.043Z,992.06
2018-06-20T13:25:05.427Z,992.07
2018-06-20T13:26:06.418Z,992.07
2018-06-20T13:27:08.905Z,992.02
2018-06-20T13:28:12.911Z,992.02
2018-06-20T13:29:08.451Z,992.00
2018-06-20T13:30:28.471Z,992.01
2018-06-20T13:31:20.446Z,992.01
2018-06-20T13:32:06.957Z,991.97
2018-06-20T13:33:06.397Z,991.97
2018-06-20T13:34:10.907Z,991.97
2018-06-20T13:35:09.523Z,991.97
2018-06-20T13:36:09.418Z,991.90
2018-06-20T13:37:28.951Z,991.86
2018-06-20T13:38:12.905Z,991.89
2018-06-20T13:39:28.473Z,991.89
2018-06-20T13:40:10.466Z,991.84
2018-06-20T13:41:33.517Z,991.86
2018-06-20T13:42:09.413Z,991.86
2018-06-20T13:43:09.521Z,991.82
2018-06-20T13:44:32.569Z,991.83
2018-06-20T13:47:22.805Z,991.82
2018-06-20T13:48:18.419Z,991.81
2018-06-20T13:48:43.275Z,991.81
2018-06-20T13:51:46.522Z,991.81
2018-06-20T13:54:04.701Z,991.81
2018-06-20T13:58:11.471Z,991.74
2018-06-20T13:59:13.904Z,991.70
2018-06-20T13:59:51.516Z,991.69
2018-06-20T14:01:14.401Z,991.67
2018-06-20T14:01:51.963Z,991.69
2018-06-20T14:02:52.314Z,991.65
2018-06-20T14:03:53.181Z,991.70
2018-06-20T14:04:55.236Z,991.69
2018-06-20T14:06:06.917Z,991.70
2018-06-20T14:06:52.942Z,991.61
2018-06-20T14:09:42.797Z,991.63
2018-06-20T14:30:58.804Z,991.49
2018-06-20T14:44:28.008Z,991.40
2018-06-20T14:45:39.078Z,991.44
2018-06-20T16:08:58.220Z,990.66
2018-06-20T16:09:39.134Z,990.62
2018-06-20T16:10:17.402Z,990.64
2018-06-20T16:13:12.909Z,990.60
2018-06-20T16:17:20.400Z,990.57
2018-06-20T16:17:56.669Z,990.54
2018-06-20T16:22:22.932Z,990.50
2018-06-20T16:34:16.487Z,990.41
2018-06-20T16:35:43.922Z,990.41
2018-06-20T16:36:55.562Z,990.43
2018-06-20T16:37:45.017Z,990.43
2018-06-20T16:38:45.926Z,990.39
2018-06-20T16:39:40.647Z,990.43
2018-06-20T16:41:16.387Z,990.39
2018-06-20T16:45:04.157Z,990.38
2018-06-20T18:43:57.189Z,989.75
2018-06-20T19:26:02.298Z,989.73
2018-06-20T19:31:02.392Z,989.72
2018-06-20T19:41:44.397Z,989.77
2018-06-20T19:42:12.116Z,989.81
2018-06-20T19:43:14.674Z,989.79
2018-06-20T19:44:14.168Z,989.81
